Ufo 3 — IUNV — position and weather

sailwx.info

Track history (hours):
 
Tides and Currents Weather Stations Pressure Air Temp Water Temp Dewpoint Dewpoint Depression Visibility Wind Speed Wind Dir Waves Ship Positions

Ufo 3

Last reported at 2015-Apr-26 16:16 UTC. Time now 2015-Apr-27 12:14 UTC.
Position N 44°03' E 009°51'.

Length 28 m.

Type: Passenger vessel. MMSI: 247031600.

Date/timePositionNaut miles runAvg speedWind from/ knotsBaromVisibWave heightAir tempDewpointWater temp
2015-Apr-26 16:16N 44°03' E 009°51'10 8.2
2015-Apr-26 15:04N 44°08' E 009°40'0 0.5
2015-Apr-26 14:31N 44°09' E 009°39'0 0.1
2015-Apr-26 13:17N 44°09' E 009°39'4 5.3
2015-Apr-26 12:28N 44°06' E 009°44'5 5.8
2015-Apr-26 11:33N 44°03' E 009°50'0 0.0
2015-Apr-26 10:33N 44°03' E 009°50'2 2.2
2015-Apr-26 09:33N 44°04' E 009°47'7 6.0
2015-Apr-26 08:20N 44°08' E 009°39'1 1.4
2015-Apr-26 07:33N 44°07' E 009°39'9 9.4
2015-Apr-26 06:34N 44°03' E 009°51'0 0.0
2015-Apr-26 05:33N 44°03' E 009°51'0 0.0
2015-Apr-25 22:18N 44°03' E 009°51'0 0.0
2015-Apr-25 21:33N 44°03' E 009°51'0 0.0
2015-Apr-25 20:33N 44°03' E 009°51'0 0.0
2015-Apr-25 19:33N 44°03' E 009°51'0 0.0
2015-Apr-25 18:33N 44°03' E 009°51'0 0.0
2015-Apr-25 17:33N 44°03' E 009°51'3 3.1
2015-Apr-25 16:34N 44°05' E 009°55'3 3.4
2015-Apr-25 15:33N 44°03' E 009°50'3 3.2
2015-Apr-25 14:34N 44°04' E 009°54'1 0.8
2015-Apr-25 13:34N 44°04' E 009°53'2 2.4
2015-Apr-25 12:34N 44°03' E 009°50'6 6.1
2015-Apr-25 11:33N 44°06' E 009°43'4 2.6
2015-Apr-25 10:10N 44°09' E 009°39'4 6.9
2015-Apr-25 09:31N 44°06' E 009°44'5 5.5
2015-Apr-25 08:33N 44°03' E 009°50'0 0.0
2015-Apr-25 07:33N 44°03' E 009°50'0 0.0
2015-Apr-25 06:33N 44°03' E 009°50'0 0.0
2015-Apr-24 15:22N 44°03' E 009°51'9 7.6
2015-Apr-24 14:07N 44°08' E 009°40'1 0.7
2015-Apr-24 13:17N 44°09' E 009°39'3 0.5
2015-Apr-24 07:26N 44°07' E 009°43'7 7.9
2015-Apr-24 06:33N 44°03' E 009°51'0 0.0
2015-Apr-23 17:29N 44°03' E 009°51'1210.2
2015-Apr-23 16:20N 44°09' E 009°37'6 6.3
2015-Apr-23 15:25N 44°06' E 009°44'5 6.1
2015-Apr-23 14:33N 44°03' E 009°50'3 3.3
2015-Apr-23 13:33N 44°05' E 009°46'2 0.6
2015-Apr-23 10:26N 44°06' E 009°44'7 7.9
2015-Apr-23 09:33N 44°05' E 009°53'3 2.6
2015-Apr-23 08:33N 44°03' E 009°50'3 3.2
2015-Apr-23 07:34N 44°04' E 009°54'3 3.0
2015-Apr-23 06:33N 44°03' E 009°51'0 0.0
2015-Apr-23 05:33N 44°03' E 009°51'3 0.2
2015-Apr-22 15:33N 44°04' E 009°55'3 3.4
2015-Apr-22 14:34N 44°03' E 009°50'10 2.8
2015-Apr-22 11:06N 44°09' E 009°39'0 0.1
2015-Apr-22 10:22N 44°09' E 009°39'4 4.9
2015-Apr-22 09:27N 44°06' E 009°44'8 8.5
2015-Apr-22 08:33N 44°04' E 009°54'3 3.3
2015-Apr-22 07:33N 44°03' E 009°50'0 0.4
2015-Apr-22 06:33N 44°03' E 009°51'0 0.0
2015-Apr-22 05:33N 44°03' E 009°51'0 0.0
2015-Apr-22 04:33N 44°03' E 009°51'0 0.0
2015-Apr-21 14:09N 44°03' E 009°51'4 6.5
2015-Apr-21 13:34N 44°04' E 009°46'5 5.4
2015-Apr-21 12:32N 44°08' E 009°40'9 8.8
2015-Apr-21 11:33N 44°03' E 009°50'1 0.8
2015-Apr-21 10:34N 44°02' E 009°50'1 0.7
2015-Apr-21 09:33N 44°03' E 009°51'0 0.0
2015-Apr-20 13:33N 44°03' E 009°50'0 0.0
2015-Apr-20 12:34N 44°03' E 009°50'0 0.0
2015-Apr-20 11:33N 44°03' E 009°50'1 0.8
2015-Apr-20 10:34N 44°02' E 009°51'0 0.4
2015-Apr-20 09:34N 44°03' E 009°50'0 0.5
2015-Apr-20 08:33N 44°03' E 009°50'3 0.2
2015-Apr-19 15:33N 44°04' E 009°54'3 2.9
2015-Apr-19 14:33N 44°03' E 009°50'0 0.0
2015-Apr-19 13:33N 44°03' E 009°50'3 3.4
2015-Apr-19 12:33N 44°04' E 009°54'3 3.4
2015-Apr-19 11:33N 44°03' E 009°50'1 0.8
2015-Apr-19 10:33N 44°02' E 009°51'1 0.8
2015-Apr-19 09:33N 44°03' E 009°50'0 0.0
2015-Apr-19 08:33N 44°03' E 009°50'3 3.4
2015-Apr-19 07:33N 44°04' E 009°55'3 3.1
2015-Apr-19 06:34N 44°03' E 009°51'0 0.0
2015-Apr-17 12:33N 44°03' E 009°50'0 0.5
2015-Apr-17 11:34N 44°03' E 009°50'5 4.4
2015-Apr-17 10:24N 44°06' E 009°44'5 6.2
2015-Apr-17 09:33N 44°03' E 009°50'0 0.0
2015-Apr-17 08:33N 44°03' E 009°50'0 0.0
2015-Apr-17 07:34N 44°03' E 009°50'0 0.4
2015-Apr-17 06:33N 44°03' E 009°51'0 0.0
2015-Apr-17 05:33N 44°03' E 009°51'  
Track history (hours):
 
Tides and Currents Weather Stations Pressure Air Temp Water Temp Dewpoint Dewpoint Depression Visibility Wind Speed Wind Dir Waves Ship Positions

Ufo 3

Last reported at 2015-Apr-26 16:16 UTC. Time now 2015-Apr-27 12:14 UTC.
Position N 44°03' E 009°51'.

Length 28 m.

Type: Passenger vessel. MMSI: 247031600.

Date/timePositionNaut miles runAvg speedWind from/ knotsBaromVisibWave heightAir tempDewpointWater temp
2015-Apr-26 16:16N 44°03' E 009°51'10 8.2
2015-Apr-26 15:04N 44°08' E 009°40'0 0.5
2015-Apr-26 14:31N 44°09' E 009°39'0 0.1
2015-Apr-26 13:17N 44°09' E 009°39'4 5.3
2015-Apr-26 12:28N 44°06' E 009°44'5 5.8
2015-Apr-26 11:33N 44°03' E 009°50'0 0.0
2015-Apr-26 10:33N 44°03' E 009°50'2 2.2
2015-Apr-26 09:33N 44°04' E 009°47'7 6.0
2015-Apr-26 08:20N 44°08' E 009°39'1 1.4
2015-Apr-26 07:33N 44°07' E 009°39'9 9.4
2015-Apr-26 06:34N 44°03' E 009°51'0 0.0
2015-Apr-26 05:33N 44°03' E 009°51'0 0.0
2015-Apr-25 22:18N 44°03' E 009°51'0 0.0
2015-Apr-25 21:33N 44°03' E 009°51'0 0.0
2015-Apr-25 20:33N 44°03' E 009°51'0 0.0
2015-Apr-25 19:33N 44°03' E 009°51'0 0.0
2015-Apr-25 18:33N 44°03' E 009°51'0 0.0
2015-Apr-25 17:33N 44°03' E 009°51'3 3.1
2015-Apr-25 16:34N 44°05' E 009°55'3 3.4
2015-Apr-25 15:33N 44°03' E 009°50'3 3.2
2015-Apr-25 14:34N 44°04' E 009°54'1 0.8
2015-Apr-25 13:34N 44°04' E 009°53'2 2.4
2015-Apr-25 12:34N 44°03' E 009°50'6 6.1
2015-Apr-25 11:33N 44°06' E 009°43'4 2.6
2015-Apr-25 10:10N 44°09' E 009°39'4 6.9
2015-Apr-25 09:31N 44°06' E 009°44'5 5.5
2015-Apr-25 08:33N 44°03' E 009°50'0 0.0
2015-Apr-25 07:33N 44°03' E 009°50'0 0.0
2015-Apr-25 06:33N 44°03' E 009°50'0 0.0
2015-Apr-24 15:22N 44°03' E 009°51'9 7.6
2015-Apr-24 14:07N 44°08' E 009°40'1 0.7
2015-Apr-24 13:17N 44°09' E 009°39'3 0.5
2015-Apr-24 07:26N 44°07' E 009°43'7 7.9
2015-Apr-24 06:33N 44°03' E 009°51'0 0.0
2015-Apr-23 17:29N 44°03' E 009°51'1210.2
2015-Apr-23 16:20N 44°09' E 009°37'6 6.3
2015-Apr-23 15:25N 44°06' E 009°44'5 6.1
2015-Apr-23 14:33N 44°03' E 009°50'3 3.3
2015-Apr-23 13:33N 44°05' E 009°46'2 0.6
2015-Apr-23 10:26N 44°06' E 009°44'7 7.9
2015-Apr-23 09:33N 44°05' E 009°53'3 2.6
2015-Apr-23 08:33N 44°03' E 009°50'3 3.2
2015-Apr-23 07:34N 44°04' E 009°54'3 3.0
2015-Apr-23 06:33N 44°03' E 009°51'0 0.0
2015-Apr-23 05:33N 44°03' E 009°51'3 0.2
2015-Apr-22 15:33N 44°04' E 009°55'3 3.4
2015-Apr-22 14:34N 44°03' E 009°50'10 2.8
2015-Apr-22 11:06N 44°09' E 009°39'0 0.1
2015-Apr-22 10:22N 44°09' E 009°39'4 4.9
2015-Apr-22 09:27N 44°06' E 009°44'8 8.5
2015-Apr-22 08:33N 44°04' E 009°54'3 3.3
2015-Apr-22 07:33N 44°03' E 009°50'0 0.4
2015-Apr-22 06:33N 44°03' E 009°51'0 0.0
2015-Apr-22 05:33N 44°03' E 009°51'0 0.0
2015-Apr-22 04:33N 44°03' E 009°51'0 0.0
2015-Apr-21 14:09N 44°03' E 009°51'4 6.5
2015-Apr-21 13:34N 44°04' E 009°46'5 5.4
2015-Apr-21 12:32N 44°08' E 009°40'9 8.8
2015-Apr-21 11:33N 44°03' E 009°50'1 0.8
2015-Apr-21 10:34N 44°02' E 009°50'1 0.7
2015-Apr-21 09:33N 44°03' E 009°51'0 0.0
2015-Apr-20 13:33N 44°03' E 009°50'0 0.0
2015-Apr-20 12:34N 44°03' E 009°50'0 0.0
2015-Apr-20 11:33N 44°03' E 009°50'1 0.8
2015-Apr-20 10:34N 44°02' E 009°51'0 0.4
2015-Apr-20 09:34N 44°03' E 009°50'0 0.5
2015-Apr-20 08:33N 44°03' E 009°50'3 0.2
2015-Apr-19 15:33N 44°04' E 009°54'3 2.9
2015-Apr-19 14:33N 44°03' E 009°50'0 0.0
2015-Apr-19 13:33N 44°03' E 009°50'3 3.4
2015-Apr-19 12:33N 44°04' E 009°54'3 3.4
2015-Apr-19 11:33N 44°03' E 009°50'1 0.8
2015-Apr-19 10:33N 44°02' E 009°51'1 0.8
2015-Apr-19 09:33N 44°03' E 009°50'0 0.0
2015-Apr-19 08:33N 44°03' E 009°50'3 3.4
2015-Apr-19 07:33N 44°04' E 009°55'3 3.1
2015-Apr-19 06:34N 44°03' E 009°51'0 0.0
2015-Apr-17 12:33N 44°03' E 009°50'0 0.5
2015-Apr-17 11:34N 44°03' E 009°50'5 4.4
2015-Apr-17 10:24N 44°06' E 009°44'5 6.2
2015-Apr-17 09:33N 44°03' E 009°50'0 0.0
2015-Apr-17 08:33N 44°03' E 009°50'0 0.0
2015-Apr-17 07:34N 44°03' E 009°50'0 0.4
2015-Apr-17 06:33N 44°03' E 009°51'0 0.0
2015-Apr-17 05:33N 44°03' E 009°51'  

Dump ship's entire track history